createdAt,value
2023-01-07T00:01:35.065Z,100494.42
2023-01-07T00:03:40.602Z,100498.5
2023-01-07T00:05:45.999Z,100501.97
2023-01-07T00:07:51.738Z,100497.7
2023-01-07T00:09:59.893Z,100503.42
2023-01-07T00:12:05.032Z,100506.43
2023-01-07T00:14:10.736Z,100514.09
2023-01-07T00:16:16.087Z,100510.19
2023-01-07T00:18:21.724Z,100515.16
2023-01-07T00:20:26.997Z,100509.53
2023-01-07T00:22:32.494Z,100510.81
2023-01-07T00:24:37.961Z,100517.97
2023-01-07T00:26:43.308Z,100525.98
2023-01-07T00:28:48.581Z,100523.52
2023-01-07T00:30:53.827Z,100532.41
2023-01-07T00:32:59.584Z,100530.81
2023-01-07T00:35:04.934Z,100529.09
2023-01-07T00:37:10.544Z,100530.11
2023-01-07T00:39:15.810Z,100537.7
2023-01-07T00:41:21.163Z,100546.91
2023-01-07T00:43:26.294Z,100550.34
2023-01-07T00:45:31.688Z,100551.61
2023-01-07T00:47:37.211Z,100552.38
2023-01-07T00:49:42.484Z,100555.69
2023-01-07T00:51:47.431Z,100563.48
2023-01-07T00:53:52.945Z,100549.55
2023-01-07T00:55:58.395Z,100553.71
2023-01-07T00:58:03.850Z,100554.16
2023-01-07T01:00:09.025Z,100551.16
2023-01-07T01:02:15.198Z,100557.08
2023-01-07T01:04:20.556Z,100557.62
2023-01-07T01:06:25.740Z,100555.71
2023-01-07T01:08:30.806Z,100556.44
2023-01-07T01:10:36.205Z,100550.91
2023-01-07T01:12:41.417Z,100558.13
2023-01-07T01:14:46.482Z,100559.49
2023-01-07T01:16:52.571Z,100557.17
2023-01-07T01:18:57.863Z,100548.02
2023-01-07T01:21:03.188Z,100557.98
2023-01-07T01:23:08.410Z,100574.81
2023-01-07T01:25:13.634Z,100575.78
2023-01-07T01:27:18.998Z,100572.77
2023-01-07T01:29:25.232Z,100570.31
2023-01-07T01:31:30.575Z,100578.86
2023-01-07T01:33:36.254Z,100573.92
2023-01-07T01:35:41.455Z,100574.41
2023-01-07T01:37:46.800Z,100575.55
2023-01-07T01:39:51.901Z,100571.42
2023-01-07T01:41:57.286Z,100574.53
2023-01-07T01:44:02.851Z,100569.28
2023-01-07T01:46:08.219Z,100571.41
2023-01-07T01:48:13.816Z,100575.78
2023-01-07T01:50:19.380Z,100574.36
2023-01-07T01:52:24.479Z,100574.28
2023-01-07T01:54:30.076Z,100574.63
2023-01-07T01:56:35.732Z,100573.33
2023-01-07T01:58:40.824Z,100572.84
2023-01-07T02:00:46.486Z,100572.15
2023-01-07T02:02:52.408Z,100577.52
2023-01-07T02:04:57.721Z,100578.36
2023-01-07T02:07:02.836Z,100578.42
2023-01-07T02:09:07.915Z,100582.05
2023-01-07T02:11:13.036Z,100580.88
2023-01-07T02:13:18.174Z,100578.69
2023-01-07T02:15:23.851Z,100577.67
2023-01-07T02:17:29.013Z,100577.13
2023-01-07T02:19:34.249Z,100570.98
2023-01-07T02:21:39.446Z,100576.11
2023-01-07T02:23:45.059Z,100574.97
2023-01-07T02:25:50.248Z,100576.73
2023-01-07T02:27:55.678Z,100573.41
2023-01-07T02:30:00.724Z,100577.74
2023-01-07T02:32:05.873Z,100579.45
2023-01-07T02:34:11.530Z,100574.95
2023-01-07T02:36:16.778Z,100572.86
2023-01-07T02:38:21.996Z,100573.7
2023-01-07T02:40:27.122Z,100576.88
2023-01-07T02:42:35.651Z,100579.45
2023-01-07T02:44:41.007Z,100580.23
2023-01-07T02:46:46.103Z,100584.09
2023-01-07T02:48:51.465Z,100584.61
2023-01-07T02:50:56.647Z,100582.02
2023-01-07T02:53:02.014Z,100578.95
2023-01-07T02:55:07.996Z,100577
2023-01-07T02:57:13.233Z,100582.27
2023-01-07T02:59:18.290Z,100582.77
2023-01-07T03:01:23.956Z,100582.33
2023-01-07T03:03:29.841Z,100583.41
2023-01-07T03:05:35.139Z,100588.47
2023-01-07T03:07:41.047Z,100591.69
2023-01-07T03:09:46.412Z,100595.76
2023-01-07T03:11:51.685Z,100599.45
2023-01-07T03:13:56.988Z,100600.31
2023-01-07T03:16:02.517Z,100596.83
2023-01-07T03:18:08.277Z,100601.45
2023-01-07T03:20:13.921Z,100603.24
2023-01-07T03:22:19.079Z,100607.42
2023-01-07T03:24:25.011Z,100605.28
2023-01-07T03:26:30.319Z,100606.3
2023-01-07T03:28:35.492Z,100600.5
2023-01-07T03:30:40.868Z,100608.29
2023-01-07T03:32:46.115Z,100603.92
2023-01-07T03:34:51.534Z,100609.2
2023-01-07T03:36:56.344Z,100606.7
2023-01-07T03:39:01.513Z,100608.67
2023-01-07T03:41:06.684Z,100606.13
2023-01-07T03:43:12.636Z,100611.2
2023-01-07T03:45:18.172Z,100605.41
2023-01-07T03:47:23.483Z,100610.53
2023-01-07T03:49:28.869Z,100613.63
2023-01-07T03:51:34.969Z,100606.14
2023-01-07T03:53:40.011Z,100602.95
2023-01-07T03:55:45.348Z,100600.8
2023-01-07T03:57:50.938Z,100603.35
2023-01-07T03:59:57.024Z,100606.05
2023-01-07T04:02:03.171Z,100605.08
2023-01-07T04:04:09.234Z,100601.31
2023-01-07T04:06:14.795Z,100602.63
2023-01-07T04:08:20.345Z,100609.62
2023-01-07T04:10:25.568Z,100609.14
2023-01-07T04:12:30.807Z,100604.64
2023-01-07T04:14:36.184Z,100608.56
2023-01-07T04:16:41.718Z,100607.76
2023-01-07T04:18:47.728Z,100608.76
2023-01-07T04:20:53.121Z,100606.03
2023-01-07T04:22:58.300Z,100601.91
2023-01-07T04:25:03.925Z,100603.92
2023-01-07T04:27:09.546Z,100603.74
2023-01-07T04:29:15.056Z,100602.88
2023-01-07T04:31:23.551Z,100594.39
2023-01-07T04:33:29.171Z,100601.64
2023-01-07T04:35:34.522Z,100599.55
2023-01-07T04:37:39.969Z,100594.3
2023-01-07T04:39:45.311Z,100593.52
2023-01-07T04:41:50.561Z,100595.77
2023-01-07T04:43:55.579Z,100589.78
2023-01-07T04:46:00.640Z,100591.35
2023-01-07T04:48:06.176Z,100594.04
2023-01-07T04:50:11.457Z,100593.65
2023-01-07T04:52:16.755Z,100592.16
2023-01-07T04:54:22.124Z,100593.84
2023-01-07T04:56:27.398Z,100590.48
2023-01-07T04:58:32.732Z,100598.81
2023-01-07T05:00:38.031Z,100597.86
2023-01-07T05:02:43.588Z,100605.69
2023-01-07T05:04:49.520Z,100611.85
2023-01-07T05:06:54.860Z,100613.75
2023-01-07T05:09:00.043Z,100620.52
2023-01-07T05:11:05.117Z,100622.28
2023-01-07T05:13:10.439Z,100626.14
2023-01-07T05:15:15.927Z,100626.38
2023-01-07T05:17:20.904Z,100635.24
2023-01-07T05:19:26.209Z,100633.63
2023-01-07T05:21:31.484Z,100632.67
2023-01-07T05:23:36.485Z,100637.47
2023-01-07T05:25:41.833Z,100635.69
2023-01-07T05:27:48.239Z,100637.19
2023-01-07T05:29:53.316Z,100637.67
2023-01-07T05:31:58.569Z,100639.54
2023-01-07T05:34:03.796Z,100641.73
2023-01-07T05:36:09.448Z,100636.69
2023-01-07T05:38:15.277Z,100641.13
2023-01-07T05:40:20.275Z,100641.23
2023-01-07T05:42:25.603Z,100648.26
2023-01-07T05:44:30.832Z,100649.63
2023-01-07T05:46:36.070Z,100650.47
2023-01-07T05:48:41.423Z,100648.92
2023-01-07T05:50:46.833Z,100650.48
2023-01-07T05:52:51.918Z,100658.22
2023-01-07T05:54:57.838Z,100663.16
2023-01-07T05:57:02.924Z,100660.23
2023-01-07T05:59:08.310Z,100660.23
2023-01-07T06:01:13.673Z,100657.44
2023-01-07T06:03:19.204Z,100664.85
2023-01-07T06:05:24.547Z,100661.98
2023-01-07T06:07:29.949Z,100661.39
2023-01-07T06:09:35.724Z,100664.53
2023-01-07T06:11:40.890Z,100666.73
2023-01-07T06:13:46.116Z,100665.03
2023-01-07T06:15:51.404Z,100659.89
2023-01-07T06:17:56.785Z,100659.08
2023-01-07T06:20:02.013Z,100655.53
2023-01-07T06:22:07.204Z,100659.27
2023-01-07T06:24:12.554Z,100661.95
2023-01-07T06:26:17.863Z,100668.91
2023-01-07T06:28:23.195Z,100670.93
2023-01-07T06:30:28.520Z,100673.95
2023-01-07T06:32:33.870Z,100677.67
2023-01-07T06:34:39.171Z,100682.61
2023-01-07T06:36:44.408Z,100680.73
2023-01-07T06:38:49.501Z,100682.59
2023-01-07T06:40:54.742Z,100676.56
2023-01-07T06:42:59.843Z,100680.91
2023-01-07T06:45:05.004Z,100679.91
2023-01-07T06:47:10.660Z,100681.94
2023-01-07T06:49:15.817Z,100679.27
2023-01-07T06:51:21.210Z,100685.09
2023-01-07T06:53:26.416Z,100685.58
2023-01-07T06:55:31.606Z,100693.27
2023-01-07T06:57:37.045Z,100699.45
2023-01-07T06:59:42.404Z,100698.83
2023-01-07T07:01:48.399Z,100696.47
2023-01-07T07:03:53.795Z,100702.51
2023-01-07T07:05:59.298Z,100711.05
2023-01-07T07:08:04.872Z,100713.08
2023-01-07T07:10:10.189Z,100720.56
2023-01-07T07:12:15.280Z,100719.41
2023-01-07T07:14:20.596Z,100723.44
2023-01-07T07:16:26.050Z,100723.11
2023-01-07T07:18:33.583Z,100726.63
2023-01-07T07:20:38.880Z,100727.16
2023-01-07T07:22:44.043Z,100726.01
2023-01-07T07:24:54.810Z,100733.28
2023-01-07T07:27:00.726Z,100727.3
2023-01-07T07:29:05.967Z,100725.42
2023-01-07T07:31:12.051Z,100723.95
2023-01-07T07:33:18.828Z,100727.63
2023-01-07T07:35:24.919Z,100729.89
2023-01-07T07:37:30.635Z,100721.59
2023-01-07T07:39:36.539Z,100733.52
2023-01-07T07:41:42.389Z,100740.08
2023-01-07T07:43:48.529Z,100739.78
2023-01-07T07:45:53.651Z,100737.85
2023-01-07T07:47:59.066Z,100740.15
2023-01-07T07:50:04.648Z,100737.48
2023-01-07T07:52:10.614Z,100737.98
2023-01-07T07:54:16.181Z,100743.75
2023-01-07T07:56:21.602Z,100736.38
2023-01-07T07:58:27.132Z,100736.07
2023-01-07T08:00:33.341Z,100737.16
2023-01-07T08:02:40.241Z,100735.59
2023-01-07T08:04:46.642Z,100731.92
2023-01-07T08:06:52.748Z,100736.11
2023-01-07T08:08:58.531Z,100730.61
2023-01-07T08:11:04.341Z,100727.12
2023-01-07T08:13:10.148Z,100726.27
2023-01-07T08:15:16.602Z,100724.73
2023-01-07T08:17:23.731Z,100722.7
2023-01-07T08:19:30.107Z,100734.03
2023-01-07T08:21:36.546Z,100739.48
2023-01-07T08:23:42.813Z,100739.13
2023-01-07T08:25:48.826Z,100735.8
2023-01-07T08:27:55.141Z,100730.94
2023-01-07T08:30:01.346Z,100730.23
2023-01-07T08:32:07.711Z,100730.23
2023-01-07T08:34:14.066Z,100737.69
2023-01-07T08:36:24.441Z,100735.88
2023-01-07T08:38:30.592Z,100728.52
2023-01-07T08:40:38.079Z,100732.48
2023-01-07T08:42:46.218Z,100734.53
2023-01-07T08:44:52.377Z,100734.44
2023-01-07T08:46:58.966Z,100728.84
2023-01-07T08:49:10.261Z,100738.05
2023-01-07T08:51:19.477Z,100741.28
2023-01-07T08:53:26.124Z,100742.97
2023-01-07T08:55:32.326Z,100747.7
2023-01-07T08:57:38.703Z,100744.09
2023-01-07T08:59:44.846Z,100748.33
2023-01-07T09:01:51.895Z,100750.23
2023-01-07T09:04:01.597Z,100749.31
2023-01-07T09:06:07.850Z,100752.63
2023-01-07T09:08:13.970Z,100756.93
2023-01-07T09:10:20.080Z,100757.08
2023-01-07T09:12:26.373Z,100754.25
2023-01-07T09:14:32.673Z,100752.12
2023-01-07T09:16:38.969Z,100748.8
2023-01-07T09:18:47.012Z,100745.06
2023-01-07T09:20:53.324Z,100739.48
2023-01-07T09:23:00.257Z,100743.97
2023-01-07T09:25:06.621Z,100749.27
2023-01-07T09:27:12.953Z,100747.16
2023-01-07T09:29:19.152Z,100746.98
2023-01-07T09:31:25.819Z,100748.29
2023-01-07T09:33:34.052Z,100755.52
2023-01-07T09:35:41.719Z,100754.83
2023-01-07T09:37:48.443Z,100752.77
2023-01-07T09:39:56.612Z,100753.78
2023-01-07T09:42:02.812Z,100751.83
2023-01-07T09:44:09.241Z,100755.64
2023-01-07T09:46:15.506Z,100753.27
2023-01-07T09:48:22.328Z,100748.52
2023-01-07T09:50:28.763Z,100745.59
2023-01-07T09:52:35.632Z,100746.22
2023-01-07T09:54:42.568Z,100749.57
2023-01-07T09:56:49.138Z,100746.5
2023-01-07T09:58:55.334Z,100745.69
2023-01-07T10:01:02.020Z,100751.05
2023-01-07T10:03:08.696Z,100741.8
2023-01-07T10:05:15.161Z,100743.57
2023-01-07T10:07:21.390Z,100745.23
2023-01-07T10:09:28.055Z,100742.16
2023-01-07T10:11:34.516Z,100739.22
2023-01-07T10:13:41.731Z,100739.17
2023-01-07T10:15:48.352Z,100738.8
2023-01-07T10:17:54.514Z,100738.19
2023-01-07T10:20:00.643Z,100736.83
2023-01-07T10:22:07.424Z,100733.34
2023-01-07T10:24:13.953Z,100735.6
2023-01-07T10:26:20.992Z,100727.33
2023-01-07T10:28:27.588Z,100724.31
2023-01-07T10:30:34.129Z,100720.89
2023-01-07T10:32:41.525Z,100713.36
2023-01-07T10:34:47.608Z,100704.23
2023-01-07T10:36:53.811Z,100700.55
2023-01-07T10:39:00.542Z,100698.34
2023-01-07T10:41:07.010Z,100696.63
2023-01-07T10:43:13.567Z,100692.02
2023-01-07T10:45:20.114Z,100686.58
2023-01-07T10:47:26.558Z,100681.59
2023-01-07T10:49:32.867Z,100675.5
2023-01-07T10:51:39.110Z,100672.6
2023-01-07T10:53:45.349Z,100672.57
2023-01-07T10:55:52.915Z,100671.17
2023-01-07T10:57:59.464Z,100665.09
2023-01-07T11:00:05.682Z,100666.53
2023-01-07T11:02:12.368Z,100663.7
2023-01-07T11:04:20.940Z,100670.59
2023-01-07T11:06:27.094Z,100671.88
2023-01-07T11:08:34.048Z,100670.21
2023-01-07T11:10:40.715Z,100672.86
2023-01-07T11:12:48.167Z,100677.73
2023-01-07T11:14:55.118Z,100678.91
2023-01-07T11:17:01.142Z,100678.91
2023-01-07T11:19:06.857Z,100673.16
2023-01-07T11:21:45.453Z,100676.45
2023-01-07T11:23:54.221Z,100677.13
2023-01-07T11:26:00.739Z,100680.05
2023-01-07T11:28:07.346Z,100678.22
2023-01-07T11:30:13.807Z,100677.38
2023-01-07T11:32:21.157Z,100675.91
2023-01-07T11:34:27.496Z,100668.68
2023-01-07T11:36:34.650Z,100662.02
2023-01-07T11:38:42.027Z,100662.66
2023-01-07T11:40:48.973Z,100667.59
2023-01-07T11:42:54.858Z,100664.59
2023-01-07T11:45:03.909Z,100664.66
2023-01-07T11:47:09.963Z,100667.95
2023-01-07T11:49:15.946Z,100666.58
2023-01-07T11:51:22.164Z,100666.18
2023-01-07T11:53:29.187Z,100667.27
2023-01-07T11:55:35.353Z,100672.38
2023-01-07T11:57:42.189Z,100670.65
2023-01-07T11:59:49.127Z,100671.23
2023-01-07T12:01:55.532Z,100669.13
2023-01-07T12:04:02.225Z,100662.02
2023-01-07T12:06:08.778Z,100655.61
2023-01-07T12:08:15.335Z,100654.8
2023-01-07T12:10:22.330Z,100654.84
2023-01-07T12:12:29.614Z,100653.89
2023-01-07T12:14:35.668Z,100655.41
2023-01-07T12:16:42.292Z,100655.9
2023-01-07T12:18:48.996Z,100657.95
2023-01-07T12:20:55.464Z,100646.47
2023-01-07T12:23:01.844Z,100647.45
2023-01-07T12:25:08.600Z,100649.31
2023-01-07T12:27:15.261Z,100645.58
2023-01-07T12:29:21.479Z,100651.75
2023-01-07T12:31:30.446Z,100640.08
2023-01-07T12:33:37.088Z,100637.29
2023-01-07T12:35:43.619Z,100638.72
2023-01-07T12:37:50.191Z,100635.43
2023-01-07T12:39:58.447Z,100633.05
2023-01-07T12:42:04.920Z,100629.94
2023-01-07T12:44:11.118Z,100629.13
2023-01-07T12:46:17.733Z,100636.12
2023-01-07T12:48:24.675Z,100640.61
2023-01-07T12:50:32.189Z,100641.97
2023-01-07T12:52:41.797Z,100635.98
2023-01-07T12:54:50.171Z,100635.16
2023-01-07T12:56:56.259Z,100633.97
2023-01-07T12:59:01.906Z,100631.77
2023-01-07T13:01:09.239Z,100632.11
2023-01-07T13:03:15.009Z,100634.8
2023-01-07T13:05:21.197Z,100631.66
2023-01-07T13:07:28.041Z,100635.55
2023-01-07T13:09:34.366Z,100636.45
2023-01-07T13:11:40.827Z,100639.75
2023-01-07T13:13:47.095Z,100641.83
2023-01-07T13:15:53.645Z,100643.2
2023-01-07T13:18:00.031Z,100643.69
2023-01-07T13:20:06.892Z,100640.13
2023-01-07T13:22:13.715Z,100641.08
2023-01-07T13:24:20.921Z,100637.82
2023-01-07T13:27:01.835Z,100640.97
2023-01-07T13:29:08.509Z,100647.02
2023-01-07T13:31:14.467Z,100645.19
2023-01-07T13:33:20.337Z,100645.86
2023-01-07T13:35:26.428Z,100642.64
2023-01-07T13:37:32.798Z,100644.7
2023-01-07T13:39:38.746Z,100641.31
2023-01-07T13:41:44.754Z,100639.41
2023-01-07T13:43:50.871Z,100641.77
2023-01-07T13:45:56.942Z,100645.25
2023-01-07T13:48:03.432Z,100646.6
2023-01-07T13:50:10.456Z,100650.27
2023-01-07T13:52:16.880Z,100648.62
2023-01-07T13:54:23.432Z,100651.55
2023-01-07T13:56:29.867Z,100645.88
2023-01-07T13:58:36.251Z,100651.42
2023-01-07T14:00:42.774Z,100654.47
2023-01-07T14:02:48.998Z,100654.58
2023-01-07T14:04:55.710Z,100651.03
2023-01-07T14:07:01.917Z,100650.78
2023-01-07T14:09:08.433Z,100648.42
2023-01-07T14:11:15.832Z,100644.29
2023-01-07T14:13:21.961Z,100652.8
2023-01-07T14:15:29.235Z,100653.67
2023-01-07T14:17:36.865Z,100658.14
2023-01-07T14:19:43.988Z,100652.92
2023-01-07T14:21:50.378Z,100653.17
2023-01-07T14:23:56.409Z,100659.13
2023-01-07T14:26:02.681Z,100652.84
2023-01-07T14:28:08.981Z,100651.34
2023-01-07T14:30:18.356Z,100652.72
2023-01-07T14:32:24.883Z,100653.66
2023-01-07T14:34:31.023Z,100657.44
2023-01-07T14:36:37.441Z,100661.18
2023-01-07T14:38:43.790Z,100661.89
2023-01-07T14:40:49.816Z,100665.75
2023-01-07T14:42:56.094Z,100663.3
2023-01-07T14:45:02.495Z,100665.72
2023-01-07T14:47:08.774Z,100667.57
2023-01-07T14:49:15.461Z,100664.61
2023-01-07T14:51:22.157Z,100666.91
2023-01-07T14:53:28.842Z,100672.5
2023-01-07T14:55:35.345Z,100671.47
2023-01-07T14:57:41.831Z,100667.16
2023-01-07T14:59:48.601Z,100669.09
2023-01-07T15:05:02.993Z,100670.12
2023-01-07T15:07:09.398Z,100666.06
2023-01-07T15:09:16.327Z,100667.66
2023-01-07T15:11:22.383Z,100670.5
2023-01-07T15:13:29.674Z,100672.51
2023-01-07T15:15:36.764Z,100677.05
2023-01-07T15:17:43.314Z,100678.69
2023-01-07T15:19:51.563Z,100678.66
2023-01-07T15:21:58.277Z,100676.41
2023-01-07T15:24:05.770Z,100668.88
2023-01-07T15:26:12.439Z,100673.2
2023-01-07T15:28:18.501Z,100671.76
2023-01-07T15:30:26.285Z,100677.3
2023-01-07T15:32:32.637Z,100674.33
2023-01-07T15:34:39.007Z,100678.03
2023-01-07T15:36:45.177Z,100678.81
2023-01-07T15:38:52.423Z,100677.25
2023-01-07T15:40:59.063Z,100680.9
2023-01-07T15:43:07.875Z,100677.64
2023-01-07T15:45:14.552Z,100675.09
2023-01-07T15:47:20.187Z,100664.75
2023-01-07T15:49:25.668Z,100658.77
2023-01-07T15:51:32.015Z,100663.98
2023-01-07T15:53:38.433Z,100669.57
2023-01-07T15:55:45.798Z,100670.19
2023-01-07T15:57:53.297Z,100673.51
2023-01-07T15:59:59.443Z,100675.61
2023-01-07T16:02:06.303Z,100674.41
2023-01-07T16:04:16.666Z,100678.66
2023-01-07T16:06:24.466Z,100675.78
2023-01-07T16:08:31.528Z,100673.19
2023-01-07T16:10:38.095Z,100681.03
2023-01-07T16:13:07.413Z,100680.77
2023-01-07T16:15:17.450Z,100684.19
2023-01-07T16:17:26.070Z,100674.41
2023-01-07T16:19:32.875Z,100672.83
2023-01-07T16:21:48.095Z,100675.35
2023-01-07T16:23:59.154Z,100678.44
2023-01-07T16:26:07.158Z,100677.61
2023-01-07T16:28:13.667Z,100673.02
2023-01-07T16:30:22.924Z,100672.08
2023-01-07T16:32:28.861Z,100670.33
2023-01-07T16:34:36.355Z,100668.91
2023-01-07T16:36:43.814Z,100663.59
2023-01-07T16:38:53.963Z,100666.06
2023-01-07T16:41:00.217Z,100665.61
2023-01-07T16:43:05.969Z,100665.73
2023-01-07T16:45:11.461Z,100666.13
2023-01-07T16:47:17.018Z,100663
2023-01-07T16:49:24.200Z,100655.94
2023-01-07T16:51:30.569Z,100657.16
2023-01-07T16:53:39.549Z,100649.67
2023-01-07T16:55:45.179Z,100643.54
2023-01-07T16:57:56.316Z,100642.03
2023-01-07T17:00:06.984Z,100638.81
2023-01-07T17:02:12.482Z,100636.2
2023-01-07T17:04:18.331Z,100630.48
2023-01-07T17:06:24.664Z,100631.8
2023-01-07T17:08:30.315Z,100634.84
2023-01-07T17:10:37.526Z,100635.93
2023-01-07T17:12:43.134Z,100641.41
2023-01-07T17:14:49.278Z,100641.21
2023-01-07T17:16:54.822Z,100636.53
2023-01-07T17:19:01.833Z,100630.33
2023-01-07T17:21:07.638Z,100631.81
2023-01-07T17:23:13.035Z,100636.63
2023-01-07T17:25:18.384Z,100633.78
2023-01-07T17:27:24.227Z,100631.45
2023-01-07T17:29:30.671Z,100627.52
2023-01-07T17:31:36.061Z,100619.64
2023-01-07T17:33:42.654Z,100615.67
2023-01-07T17:35:49.724Z,100617.49
2023-01-07T17:37:55.248Z,100618.41
2023-01-07T17:40:01.354Z,100628.72
2023-01-07T17:42:07.390Z,100624.56
2023-01-07T17:44:12.848Z,100624.39
2023-01-07T17:46:19.962Z,100623.73
2023-01-07T17:48:27.156Z,100630.32
2023-01-07T17:52:53.594Z,100633.88
2023-01-07T17:54:59.664Z,100635.09
2023-01-07T17:57:06.084Z,100635.05
2023-01-07T17:59:12.005Z,100632.58
2023-01-07T18:01:20.483Z,100634.4
2023-01-07T18:03:28.381Z,100637.44
2023-01-07T18:05:35.215Z,100631.14
2023-01-07T18:07:47.386Z,100631.25
2023-01-07T18:09:52.920Z,100625.22
2023-01-07T18:11:59.191Z,100628.23
2023-01-07T18:14:08.524Z,100627.23
2023-01-07T18:16:14.597Z,100630.45
2023-01-07T18:18:21.015Z,100626.83
2023-01-07T18:20:27.647Z,100627.75
2023-01-07T18:22:34.893Z,100627.67
2023-01-07T18:24:41.332Z,100628.49
2023-01-07T18:26:48.613Z,100629.63
2023-01-07T18:28:59.213Z,100627.95
2023-01-07T18:31:05.600Z,100630.19
2023-01-07T18:33:11.724Z,100632.11
2023-01-07T18:35:17.990Z,100634.34
2023-01-07T18:37:24.725Z,100632.99
2023-01-07T18:39:30.535Z,100625.91
2023-01-07T18:41:36.123Z,100627.97
2023-01-07T18:43:43.879Z,100623.36
2023-01-07T18:45:49.827Z,100623.13
2023-01-07T18:47:55.625Z,100620.3
2023-01-07T18:50:05.623Z,100621.08
2023-01-07T18:52:14.231Z,100621.15
2023-01-07T18:54:20.465Z,100619.23
2023-01-07T18:56:26.559Z,100622.67
2023-01-07T18:58:31.917Z,100623.03
2023-01-07T19:00:39.752Z,100626
2023-01-07T19:02:45.418Z,100624.59
2023-01-07T19:04:51.353Z,100625.5
2023-01-07T19:06:57.018Z,100625.57
2023-01-07T19:09:11.471Z,100616.76
2023-01-07T19:11:18.058Z,100613.77
2023-01-07T19:13:27.447Z,100610.9
2023-01-07T19:15:33.881Z,100609.7
2023-01-07T19:17:39.429Z,100611.53
2023-01-07T19:19:50.458Z,100604.52
2023-01-07T19:21:56.141Z,100601.09
2023-01-07T19:24:01.827Z,100610.27
2023-01-07T19:26:20.379Z,100607.35
2023-01-07T19:28:26.323Z,100614.48
2023-01-07T19:30:31.649Z,100611.61
2023-01-07T19:32:37.192Z,100607.58
2023-01-07T19:34:42.486Z,100602.19
2023-01-07T19:36:49.147Z,100602.33
2023-01-07T19:38:57.294Z,100595.92
2023-01-07T19:41:02.938Z,100590.11
2023-01-07T19:43:08.472Z,100594.15
2023-01-07T19:45:13.979Z,100594.92
2023-01-07T19:47:20.130Z,100596.19
2023-01-07T19:49:26.912Z,100593.42
2023-01-07T19:51:32.760Z,100589.72
2023-01-07T19:53:41.756Z,100591.38
2023-01-07T19:55:47.732Z,100593.74
2023-01-07T19:57:53.697Z,100594.42
2023-01-07T19:59:59.886Z,100593.36
2023-01-07T20:02:07.634Z,100590.89
2023-01-07T20:04:14.156Z,100589.5
2023-01-07T20:06:21.193Z,100592.77
2023-01-07T20:08:28.441Z,100590.77
2023-01-07T20:10:35.141Z,100592.97
2023-01-07T20:12:47.475Z,100590.3
2023-01-07T20:14:53.654Z,100590.33
2023-01-07T20:16:59.690Z,100595.34
2023-01-07T20:19:06.177Z,100589.62
2023-01-07T20:21:12.019Z,100581.34
2023-01-07T20:23:18.011Z,100584.63
2023-01-07T20:25:29.535Z,100577.09
2023-01-07T20:27:35.810Z,100575.44
2023-01-07T20:29:42.433Z,100576.78
2023-01-07T20:31:50.631Z,100575.03
2023-01-07T20:33:57.406Z,100574.93
2023-01-07T20:36:05.478Z,100571.98
2023-01-07T20:38:12.552Z,100564.3
2023-01-07T20:40:22.340Z,100566.95
2023-01-07T20:42:32.041Z,100565.28
2023-01-07T20:44:39.361Z,100563.85
2023-01-07T20:46:44.905Z,100565.22
2023-01-07T20:48:51.062Z,100562.21
2023-01-07T20:50:57.090Z,100561.91
2023-01-07T20:53:08.015Z,100562.69
2023-01-07T20:55:14.348Z,100569.5
2023-01-07T20:57:20.171Z,100569.63
2023-01-07T20:59:27.470Z,100563.23
2023-01-07T21:01:33.958Z,100565.78
2023-01-07T21:03:40.871Z,100557.74
2023-01-07T21:05:47.755Z,100564.34
2023-01-07T21:07:53.924Z,100566.08
2023-01-07T21:10:01.012Z,100570.27
2023-01-07T21:12:08.439Z,100570.77
2023-01-07T21:14:16.164Z,100569.63
2023-01-07T21:16:26.443Z,100566.98
2023-01-07T21:18:34.420Z,100566.76
2023-01-07T21:20:54.549Z,100567.33
2023-01-07T21:23:01.237Z,100569.17
2023-01-07T21:25:06.971Z,100575.28
2023-01-07T21:27:12.564Z,100570.08
2023-01-07T21:29:18.892Z,100576.02
2023-01-07T21:31:27.017Z,100576.3
2023-01-07T21:33:33.196Z,100571.42
2023-01-07T21:35:41.086Z,100569.56
2023-01-07T21:37:47.203Z,100565.73
2023-01-07T21:39:54.434Z,100564.17
2023-01-07T21:42:00.973Z,100568.77
2023-01-07T21:44:07.269Z,100572.39
2023-01-07T21:46:12.895Z,100569.38
2023-01-07T21:48:18.425Z,100568.94
2023-01-07T21:50:24.016Z,100573.61
2023-01-07T21:52:30.102Z,100568.8
2023-01-07T21:54:35.730Z,100570.53
2023-01-07T21:56:41.206Z,100563.37
2023-01-07T21:58:48.244Z,100564.67
2023-01-07T22:00:55.491Z,100565.66
2023-01-07T22:03:02.372Z,100562.81
2023-01-07T22:05:10.020Z,100557.92
2023-01-07T22:07:15.446Z,100559.45
2023-01-07T22:09:21.194Z,100560.73
2023-01-07T22:11:26.658Z,100562.31
2023-01-07T22:13:33.097Z,100562.55
2023-01-07T22:15:38.774Z,100563.22
2023-01-07T22:17:44.384Z,100563.19
2023-01-07T22:19:49.992Z,100557.17
2023-01-07T22:21:56.153Z,100552.19
2023-01-07T22:24:03.799Z,100554.91
2023-01-07T22:26:09.263Z,100549.77
2023-01-07T22:28:14.753Z,100552.83
2023-01-07T22:30:20.728Z,100554.11
2023-01-07T22:32:26.786Z,100554.66
2023-01-07T22:34:32.658Z,100545.75
2023-01-07T22:36:39.363Z,100548.26
2023-01-07T22:38:44.685Z,100546.84
2023-01-07T22:40:49.975Z,100550.77
2023-01-07T22:42:59.023Z,100548.78
2023-01-07T22:45:04.628Z,100548.86
2023-01-07T22:47:10.159Z,100552.34
2023-01-07T22:49:15.621Z,100546.69
2023-01-07T22:51:20.960Z,100542.23
2023-01-07T22:53:27.063Z,100541.88
2023-01-07T22:55:32.748Z,100540.19
2023-01-07T22:57:38.881Z,100537.13
2023-01-07T22:59:47.233Z,100537.13
2023-01-07T23:01:53.867Z,100537.26
2023-01-07T23:03:59.581Z,100535.48
2023-01-07T23:06:05.237Z,100533.77
2023-01-07T23:08:10.593Z,100531.22
2023-01-07T23:10:17.215Z,100532.45
2023-01-07T23:12:22.351Z,100529.45
2023-01-07T23:14:28.100Z,100529.52
2023-01-07T23:16:34.019Z,100529.16
2023-01-07T23:18:39.956Z,100529.03
2023-01-07T23:20:45.586Z,100520.75
2023-01-07T23:22:51.270Z,100522.09
2023-01-07T23:24:56.741Z,100524.63
2023-01-07T23:27:02.464Z,100519.6
2023-01-07T23:29:08.456Z,100520.52
2023-01-07T23:31:14.303Z,100515.23
2023-01-07T23:33:19.972Z,100523.17
2023-01-07T23:35:25.264Z,100517.7
2023-01-07T23:37:30.658Z,100518.97
2023-01-07T23:39:35.975Z,100518.55
2023-01-07T23:41:41.142Z,100513.9
2023-01-07T23:43:46.288Z,100511.86
2023-01-07T23:45:51.568Z,100505.52
2023-01-07T23:47:57.159Z,100505.98
2023-01-07T23:50:02.505Z,100506.16
2023-01-07T23:52:07.554Z,100507.52
2023-01-07T23:54:13.443Z,100502.53
2023-01-07T23:56:18.562Z,100497.52
2023-01-07T23:58:23.862Z,100488.26
